Time;durP1;ratioP1;P1;durP2;ratioP2;P2;SDS_P1;SDS_P2;PMS_P1;PMS_P2;Temp;Humidity;BMP_temperature;BMP_pressure;BME280_temperature;BME280_humidity;BME280_pressure;Samples;Min_cycle;Max_cycle;Signal;HPM_P1;HPM_P2
2022/07/23 00:00:09;;;;;;;10.02;6.20;;;;;;;27.02;65.92;99550.63;4983159;28;20031;-74
2022/07/23 00:02:35;;;;;;;11.45;6.43;;;;;;;26.98;66.12;99557.56;4982177;28;20399;-73
2022/07/23 00:05:01;;;;;;;8.65;6.13;;;;;;;26.94;66.54;99553.72;4982089;28;20383;-73
2022/07/23 00:07:27;;;;;;;7.05;6.20;;;;;;;26.89;67.05;99559.09;4983088;28;20097;-74
2022/07/23 00:09:54;;;;;;;9.15;6.15;;;;;;;26.88;67.10;99552.84;4981349;28;20027;-74
2022/07/23 00:12:20;;;;;;;12.23;6.40;;;;;;;26.87;67.54;99553.06;4981805;28;20031;-74
2022/07/23 00:14:47;;;;;;;8.85;6.07;;;;;;;26.87;67.04;99553.06;4980806;28;20067;-74
2022/07/23 00:17:13;;;;;;;8.13;6.25;;;;;;;26.90;66.99;99544.47;4982617;28;20130;-74
2022/07/23 00:19:38;;;;;;;7.85;5.95;;;;;;;26.90;67.47;99552.59;4982271;28;20065;-74
2022/07/23 00:22:04;;;;;;;7.80;6.22;;;;;;;26.91;66.92;99546.13;4984301;28;20037;-73
2022/07/23 00:24:30;;;;;;;8.07;6.65;;;;;;;26.93;66.75;99546.69;4987446;28;20034;-73
2022/07/23 00:26:55;;;;;;;6.90;6.25;;;;;;;26.92;66.79;99546.94;4986675;28;20023;-74
2022/07/23 00:29:21;;;;;;;8.35;7.07;;;;;;;26.96;66.80;99548.06;4985280;28;20038;-74
2022/07/23 00:31:46;;;;;;;7.60;6.30;;;;;;;26.96;66.71;99543.47;4984006;28;20038;-74
2022/07/23 00:34:12;;;;;;;7.20;6.57;;;;;;;26.96;67.28;99543.47;4983277;28;20062;-74
2022/07/23 00:36:38;;;;;;;7.25;6.43;;;;;;;26.97;67.26;99539.72;4986575;28;20026;-75
2022/07/23 00:39:03;;;;;;;7.20;6.53;;;;;;;26.98;67.43;99538.63;4983533;28;20035;-75
2022/07/23 00:41:29;;;;;;;7.70;6.95;;;;;;;26.98;67.56;99535.91;4986845;28;20067;-74
2022/07/23 00:43:55;;;;;;;6.82;6.20;;;;;;;26.96;67.78;99538.06;4984045;28;20042;-74
2022/07/23 00:46:22;;;;;;;6.72;6.05;;;;;;;26.89;68.29;99527.41;4986580;28;20084;-74
2022/07/23 00:48:48;;;;;;;6.75;6.15;;;;;;;26.85;68.34;99531.66;4986808;28;20366;-74
2022/07/23 00:51:17;;;;;;;7.45;6.47;;;;;;;26.75;68.73;99531.50;4985778;28;20034;-74
2022/07/23 00:53:43;;;;;;;8.60;6.23;;;;;;;26.76;68.60;99535.03;4985308;28;20070;-74
2022/07/23 00:56:10;;;;;;;8.63;6.88;;;;;;;26.72;69.25;99525.78;4986199;28;20045;-74
2022/07/23 00:58:37;;;;;;;7.65;6.70;;;;;;;26.74;69.25;99523.66;4983113;28;20152;-74
2022/07/23 01:01:03;;;;;;;7.35;6.30;;;;;;;26.77;68.78;99520.44;4983363;28;20030;-74
2022/07/23 01:03:28;;;;;;;12.15;7.50;;;;;;;26.80;69.16;99514.53;4981835;28;20026;-73
2022/07/23 01:05:54;;;;;;;7.45;6.40;;;;;;;26.81;69.07;99508.84;4983827;28;20153;-74
2022/07/23 01:08:20;;;;;;;8.27;7.07;;;;;;;26.83;68.53;99508.59;4982700;28;20380;-74
2022/07/23 01:10:47;;;;;;;8.27;6.95;;;;;;;26.81;68.93;99510.72;4981909;28;20030;-74
2022/07/23 01:13:12;;;;;;;8.32;6.72;;;;;;;26.81;69.04;99508.84;4982057;28;20035;-74
2022/07/23 01:15:39;;;;;;;11.10;6.82;;;;;;;26.79;69.97;99505.59;5002896;28;20030;-74
2022/07/23 01:18:06;;;;;;;9.15;6.78;;;;;;;26.79;70.54;99499.34;4982595;28;20050;-75
2022/07/23 01:20:34;;;;;;;8.43;6.63;;;;;;;26.73;69.96;99500.34;4987000;28;20058;-74
2022/07/23 01:23:00;;;;;;;11.40;6.43;;;;;;;26.61;69.92;99500.44;4982401;28;20149;-74
2022/07/23 01:25:26;;;;;;;7.78;6.53;;;;;;;26.29;71.11;99500.22;4983754;28;20030;-74
2022/07/23 01:27:58;;;;;;;6.97;6.20;;;;;;;26.18;72.18;99503.78;4983265;28;20455;-72
2022/07/23 01:30:23;;;;;;;6.80;5.95;;;;;;;26.08;72.94;99498.22;4978299;28;20034;-74
2022/07/23 01:32:49;;;;;;;7.05;6.47;;;;;;;26.00;73.35;99496.72;4983372;28;20557;-74
2022/07/23 01:35:15;;;;;;;13.40;6.47;;;;;;;25.90;74.88;99491.16;4980886;28;20034;-74
2022/07/23 01:37:42;;;;;;;8.43;6.57;;;;;;;25.78;76.08;99500.38;4982092;28;20041;-74
2022/07/23 01:40:08;;;;;;;8.52;6.57;;;;;;;25.68;77.00;99504.53;4982411;28;20031;-74
2022/07/23 01:42:34;;;;;;;8.00;7.28;;;;;;;25.60;78.12;99507.63;4982891;28;20029;-74
2022/07/23 01:45:00;;;;;;;9.52;6.78;;;;;;;25.42;79.52;99505.09;4979187;28;20046;-72
2022/07/23 01:47:27;;;;;;;8.73;7.53;;;;;;;25.32;80.31;99504.88;4980367;28;20038;-73
2022/07/23 01:49:54;;;;;;;8.18;7.38;;;;;;;25.26;80.91;99512.06;4966835;28;20050;-74
2022/07/23 01:52:20;;;;;;;8.38;7.53;;;;;;;25.07;82.31;99517.84;4983333;28;20116;-74
2022/07/23 01:54:48;;;;;;;9.95;7.07;;;;;;;24.94;83.39;99524.31;4982648;28;20038;-74
2022/07/23 01:57:15;;;;;;;10.50;7.22;;;;;;;24.92;83.61;99521.03;4983051;28;20038;-74
2022/07/23 01:59:41;;;;;;;8.25;7.30;;;;;;;25.02;83.46;99521.28;4983830;28;20398;-74
2022/07/23 02:02:08;;;;;;;8.43;7.40;;;;;;;25.09;82.84;99526.53;4982180;28;20022;-74
2022/07/23 02:04:36;;;;;;;9.32;7.32;;;;;;;25.14;82.30;99538.28;4981164;28;20045;-74
2022/07/23 02:07:02;;;;;;;8.95;7.88;;;;;;;25.15;82.40;99536.41;4981137;28;20088;-74
2022/07/23 02:09:29;;;;;;;8.15;7.35;;;;;;;25.17;82.34;99539.66;4982859;28;20422;-74
2022/07/23 02:11:55;;;;;;;9.52;7.55;;;;;;;25.25;82.13;99539.31;4982319;28;20035;-74
2022/07/23 02:14:20;;;;;;;9.50;7.95;;;;;;;25.27;82.14;99556.09;4981478;28;20030;-73
2022/07/23 02:16:46;;;;;;;14.13;7.50;;;;;;;25.25;81.51;99552.81;4984846;28;20038;-74
2022/07/23 02:19:14;;;;;;;7.88;6.50;;;;;;;25.19;80.84;99565.38;4983950;28;20508;-73
2022/07/23 02:21:39;;;;;;;8.85;6.82;;;;;;;25.07;79.90;99566.44;4991760;28;20039;-74
2022/07/23 02:24:05;;;;;;;9.98;6.57;;;;;;;24.98;79.96;99568.69;4984820;28;20026;-74
2022/07/23 02:26:34;;;;;;;7.28;6.55;;;;;;;24.91;80.26;99567.19;4976855;28;20034;-74
2022/07/23 02:29:03;;;;;;;8.20;7.40;;;;;;;24.92;80.34;99571.53;4966649;28;20042;-73
2022/07/23 02:31:29;;;;;;;7.30;6.50;;;;;;;24.92;80.17;99569.63;4982274;28;20509;-74
2022/07/23 02:33:56;;;;;;;7.00;6.40;;;;;;;24.93;80.09;99565.03;4982922;28;20034;-74
2022/07/23 02:36:22;;;;;;;7.70;6.53;;;;;;;24.93;79.85;99570.44;4979901;28;20030;-74
2022/07/23 02:38:47;;;;;;;9.30;7.35;;;;;;;24.89;79.79;99572.81;4980926;28;20133;-74
2022/07/23 02:41:14;;;;;;;10.13;6.80;;;;;;;24.74;79.83;99584.00;4982334;28;20055;-75
2022/07/23 02:43:41;;;;;;;7.18;6.57;;;;;;;24.59;80.32;99586.34;4980915;28;20153;-74
2022/07/23 02:46:07;;;;;;;9.32;6.45;;;;;;;24.54;80.64;99591.63;4978734;28;20046;-73
2022/07/23 02:48:33;;;;;;;7.35;6.65;;;;;;;24.55;80.70;99590.59;4979951;28;20049;-74
2022/07/23 02:50:59;;;;;;;8.38;6.72;;;;;;;24.51;80.88;99584.00;4965791;28;20035;-73
2022/07/23 02:53:31;;;;;;;9.80;6.70;;;;;;;24.47;80.75;99580.94;4996339;28;20070;-73
2022/07/23 02:55:57;;;;;;;11.02;7.15;;;;;;;24.41;81.12;99589.13;4980157;28;20120;-74
2022/07/23 02:58:22;;;;;;;8.75;7.78;;;;;;;24.42;80.87;99585.41;4981415;28;20042;-74
2022/07/23 03:00:48;;;;;;;6.93;6.30;;;;;;;24.50;80.76;99582.38;4982631;28;20041;-74
2022/07/23 03:03:14;;;;;;;7.55;6.75;;;;;;;24.59;80.40;99590.94;4979084;28;20093;-73
2022/07/23 03:05:40;;;;;;;10.45;7.13;;;;;;;24.67;79.88;99580.63;4976854;28;20045;-74
2022/07/23 03:08:06;;;;;;;8.90;6.72;;;;;;;24.77;78.97;99588.97;4980810;28;20026;-73
2022/07/23 03:10:34;;;;;;;7.30;6.60;;;;;;;24.85;78.34;99585.09;4980245;28;20483;-74
2022/07/23 03:12:59;;;;;;;7.07;6.45;;;;;;;24.91;77.94;99592.28;4981006;28;20042;-74
2022/07/23 03:15:25;;;;;;;7.57;6.95;;;;;;;24.90;77.77;99589.81;4983012;28;20125;-74
2022/07/23 03:17:51;;;;;;;8.68;6.63;;;;;;;24.87;77.93;99591.88;4981863;28;20034;-74
2022/07/23 03:20:16;;;;;;;8.10;6.68;;;;;;;24.81;78.72;99592.81;4982664;28;20057;-74
2022/07/23 03:22:42;;;;;;;8.82;6.85;;;;;;;24.71;80.76;99600.69;4977489;28;20034;-74
2022/07/23 03:25:08;;;;;;;10.20;7.13;;;;;;;24.51;82.86;99592.09;4982385;28;20022;-74
2022/07/23 03:27:34;;;;;;;8.23;7.40;;;;;;;23.98;85.49;99592.03;4979757;28;20081;-73
2022/07/23 03:30:00;;;;;;;7.82;7.13;;;;;;;23.83;86.44;99597.00;4979605;28;20042;-73
2022/07/23 03:32:26;;;;;;;8.52;7.30;;;;;;;23.83;85.80;99597.84;4981352;28;20034;-74
2022/07/23 03:34:52;;;;;;;7.43;6.70;;;;;;;23.85;86.15;99601.13;4979228;28;20058;-74
2022/07/23 03:37:19;;;;;;;9.93;6.93;;;;;;;23.40;88.43;99599.78;4982865;28;20038;-73
2022/07/23 03:39:45;;;;;;;10.25;7.57;;;;;;;23.16;90.19;99601.47;4980650;28;20065;-74
2022/07/23 03:42:11;;;;;;;10.38;7.43;;;;;;;23.22;90.39;99593.34;4978561;28;20022;-74
2022/07/23 03:44:37;;;;;;;8.35;7.55;;;;;;;23.34;90.13;99600.66;4978740;28;20044;-73
2022/07/23 03:47:04;;;;;;;7.72;7.03;;;;;;;23.39;89.77;99601.63;4980830;28;20064;-73
2022/07/23 03:49:30;;;;;;;11.70;7.95;;;;;;;23.54;89.11;99593.22;4979268;28;20447;-74
2022/07/23 03:51:56;;;;;;;10.77;8.02;;;;;;;23.26;92.76;99597.25;4981128;28;20031;-74
2022/07/23 03:54:21;;;;;;;9.95;8.23;;;;;;;23.12;93.43;99594.91;4980430;28;20447;-74
2022/07/23 03:56:47;;;;;;;9.73;7.80;;;;;;;23.28;92.15;99605.09;4980101;28;20035;-74
2022/07/23 03:59:13;;;;;;;9.18;7.65;;;;;;;23.34;91.22;99603.38;4985824;28;20089;-74
2022/07/23 04:01:38;;;;;;;9.85;7.82;;;;;;;23.35;92.01;99607.72;4974549;28;20078;-73
2022/07/23 04:04:04;;;;;;;8.77;7.88;;;;;;;23.19;93.34;99609.94;4982802;28;20363;-74
2022/07/23 04:06:30;;;;;;;8.85;7.95;;;;;;;23.19;93.47;99618.03;4978367;28;20042;-74
2022/07/23 04:08:58;;;;;;;9.30;8.40;;;;;;;23.13;93.81;99618.91;4980585;28;20035;-74
2022/07/23 04:11:23;;;;;;;10.38;8.10;;;;;;;23.26;92.94;99626.88;4985917;28;20429;-74
2022/07/23 04:13:49;;;;;;;10.85;8.35;;;;;;;23.39;91.78;99628.56;4976972;28;20039;-74
2022/07/23 04:16:14;;;;;;;10.88;8.23;;;;;;;23.18;92.96;99637.91;4983065;28;20023;-73
2022/07/23 04:18:40;;;;;;;8.63;7.68;;;;;;;23.30;91.63;99635.31;4979800;28;20142;-73
2022/07/23 04:21:12;;;;;;;8.43;7.43;;;;;;;23.18;91.45;99642.47;4974587;28;20038;-73
2022/07/23 04:23:37;;;;;;;11.30;7.65;;;;;;;23.17;91.43;99641.66;4991436;28;20026;-74
2022/07/23 04:26:04;;;;;;;7.93;7.13;;;;;;;23.26;90.94;99640.34;4980366;28;20138;-74
2022/07/23 04:28:30;;;;;;;11.13;7.65;;;;;;;23.34;90.82;99646.44;4976756;28;20038;-74
2022/07/23 04:30:57;;;;;;;8.30;7.32;;;;;;;23.48;89.92;99645.31;4979231;28;20030;-74
2022/07/23 04:33:23;;;;;;;8.30;7.50;;;;;;;23.59;88.68;99649.94;4982235;28;20059;-74
2022/07/23 04:35:51;;;;;;;9.15;7.25;;;;;;;23.65;88.28;99647.16;4982147;28;20446;-74
2022/07/23 04:38:20;;;;;;;14.18;8.25;;;;;;;23.74;87.56;99647.66;4978363;28;20113;-75
2022/07/23 04:40:48;;;;;;;9.60;7.90;;;;;;;23.81;87.15;99639.50;4978021;28;20038;-74
2022/07/23 04:43:14;;;;;;;9.32;7.45;;;;;;;23.65;87.84;99649.03;4981408;28;20027;-74
2022/07/23 04:45:44;;;;;;;8.35;7.05;;;;;;;23.61;88.37;99648.69;4978763;28;20058;-74
2022/07/23 04:48:10;;;;;;;12.75;7.65;;;;;;;23.67;88.08;99650.47;4978770;28;20034;-73
2022/07/23 04:50:36;;;;;;;8.48;7.60;;;;;;;23.44;88.81;99652.16;4982275;28;20034;-74
2022/07/23 04:53:05;;;;;;;7.53;6.82;;;;;;;23.37;89.94;99656.78;4982171;28;20418;-74
2022/07/23 04:55:30;;;;;;;9.68;7.93;;;;;;;23.42;90.21;99657.75;4979935;28;20070;-74
2022/07/23 04:57:57;;;;;;;8.52;7.72;;;;;;;23.47;89.96;99657.94;4980150;28;20043;-74
2022/07/23 05:00:22;;;;;;;9.50;7.60;;;;;;;23.44;90.60;99662.94;4977437;28;20027;-74
2022/07/23 05:02:48;;;;;;;10.50;7.55;;;;;;;23.44;90.21;99657.53;4981237;28;20042;-74
2022/07/23 05:05:14;;;;;;;9.80;8.23;;;;;;;23.25;91.64;99664.78;4979109;28;20092;-72
2022/07/23 05:07:41;;;;;;;9.80;8.77;;;;;;;23.36;91.10;99668.59;4982355;28;20125;-74
2022/07/23 05:10:07;;;;;;;11.93;8.32;;;;;;;23.43;90.82;99667.50;4985376;28;20114;-74
2022/07/23 05:12:32;;;;;;;8.77;7.80;;;;;;;23.39;90.19;99665.44;4981307;28;20441;-73
2022/07/23 05:14:58;;;;;;;11.40;7.93;;;;;;;23.37;89.91;99672.94;4985119;28;20129;-74
2022/07/23 05:17:25;;;;;;;11.32;8.05;;;;;;;23.12;91.39;99681.88;4982456;28;20039;-75
2022/07/23 05:19:51;;;;;;;7.97;7.18;;;;;;;23.16;91.06;99672.28;4982231;28;20035;-75
2022/07/23 05:22:17;;;;;;;9.88;7.70;;;;;;;23.34;90.14;99662.59;4981861;28;20035;-74
2022/07/23 05:24:43;;;;;;;11.30;7.88;;;;;;;23.27;90.27;99676.13;4983421;28;20053;-73
2022/07/23 05:27:09;;;;;;;9.20;8.38;;;;;;;23.23;90.51;99683.84;4983146;28;20148;-74
2022/07/23 05:29:35;;;;;;;8.63;7.75;;;;;;;23.37;90.37;99672.94;4982874;28;20117;-74
2022/07/23 05:32:00;;;;;;;8.18;7.43;;;;;;;23.53;89.10;99667.00;4981664;28;20047;-74
2022/07/23 05:34:28;;;;;;;13.02;7.70;;;;;;;23.71;88.17;99668.88;4998219;28;20057;-74
2022/07/23 05:36:55;;;;;;;8.68;7.47;;;;;;;23.91;87.31;99681.06;4981024;28;20175;-73
2022/07/23 05:39:21;;;;;;;12.15;7.72;;;;;;;24.04;87.34;99680.88;4980320;28;20546;-73
2022/07/23 05:41:47;;;;;;;13.15;8.27;;;;;;;24.22;86.53;99681.94;4984448;28;20050;-73
2022/07/23 05:44:13;;;;;;;8.88;7.75;;;;;;;24.40;85.78;99679.19;4982282;28;20377;-74
2022/07/23 05:46:40;;;;;;;9.27;7.50;;;;;;;24.53;85.02;99670.09;4983155;28;21017;-74
2022/07/23 05:49:08;;;;;;;8.75;7.85;;;;;;;24.67;84.43;99669.66;4995321;28;20043;-74
2022/07/23 05:51:53;;;;;;;10.57;7.38;;;;;;;24.81;83.89;99673.78;4981382;28;20053;-74
2022/07/23 05:54:27;;;;;;;9.05;7.20;;;;;;;24.96;83.82;99669.88;4997209;28;20032;-74
2022/07/23 05:56:53;;;;;;;9.27;7.68;;;;;;;25.08;84.23;99665.31;4979377;28;20129;-74
2022/07/23 05:59:18;;;;;;;8.95;7.40;;;;;;;25.17;84.16;99674.69;4996901;28;20035;-74
2022/07/23 06:01:44;;;;;;;9.23;7.95;;;;;;;25.24;84.25;99672.69;4981228;28;20042;-74
2022/07/23 06:04:11;;;;;;;9.02;7.45;;;;;;;25.28;84.05;99676.56;4983508;28;20096;-74
2022/07/23 06:06:41;;;;;;;8.48;7.55;;;;;;;25.33;84.28;99682.06;4977927;28;20386;-74
2022/07/23 06:09:13;;;;;;;9.15;7.47;;;;;;;25.38;84.08;99684.09;4977500;28;20449;-74
2022/07/23 06:11:41;;;;;;;10.75;7.60;;;;;;;25.47;83.74;99697.00;4978579;28;20410;-74
2022/07/23 06:14:06;;;;;;;8.93;7.65;;;;;;;25.53;83.31;99695.22;4981322;28;20026;-74
2022/07/23 06:16:44;;;;;;;7.68;6.97;;;;;;;25.63;83.47;99699.00;4984395;28;20116;-74
2022/07/23 06:19:10;;;;;;;9.57;7.20;;;;;;;25.73;83.07;99697.59;4983200;28;20030;-74
2022/07/23 06:21:35;;;;;;;8.23;7.47;;;;;;;25.85;82.78;99703.81;4979617;28;20029;-74
2022/07/23 06:24:01;;;;;;;9.80;7.85;;;;;;;25.91;82.42;99697.44;4985197;28;20031;-74
2022/07/23 06:26:26;;;;;;;12.77;7.35;;;;;;;25.92;82.11;99699.88;4980867;28;20034;-74
2022/07/23 06:28:52;;;;;;;9.13;7.13;;;;;;;25.94;81.53;99691.53;4984089;28;20042;-74
2022/07/23 06:31:18;;;;;;;9.30;8.40;;;;;;;25.98;81.79;99688.09;4982710;28;20070;-73
2022/07/23 06:33:43;;;;;;;10.73;8.52;;;;;;;25.97;82.46;99686.50;4980034;28;20039;-74
2022/07/23 06:36:09;;;;;;;11.98;8.65;;;;;;;25.99;81.93;99688.94;4981742;28;20064;-74
2022/07/23 06:38:35;;;;;;;8.77;7.97;;;;;;;26.01;82.01;99686.81;4982731;28;20108;-74
2022/07/23 06:41:00;;;;;;;8.43;7.63;;;;;;;26.05;81.87;99687.97;4981999;28;20050;-75
2022/07/23 06:43:26;;;;;;;8.73;7.88;;;;;;;26.13;81.96;99684.91;4981958;28;20086;-74
2022/07/23 06:45:54;;;;;;;9.35;8.30;;;;;;;26.23;81.87;99685.13;4982909;28;20065;-75
2022/07/23 06:48:22;;;;;;;9.20;8.10;;;;;;;26.32;81.69;99683.69;4981503;28;20039;-75
2022/07/23 06:50:47;;;;;;;9.48;7.93;;;;;;;26.38;80.95;99682.72;4983387;28;20071;-74
2022/07/23 06:53:14;;;;;;;10.43;8.75;;;;;;;26.43;80.65;99690.09;4979663;28;20074;-74
2022/07/23 06:55:41;;;;;;;10.00;7.38;;;;;;;26.23;81.08;99689.69;4982336;28;20073;-74
2022/07/23 06:58:06;;;;;;;8.65;7.75;;;;;;;26.25;80.92;99696.53;4980487;28;20062;-73
2022/07/23 07:00:32;;;;;;;11.70;8.68;;;;;;;26.25;81.01;99701.94;4981410;28;20042;-74
2022/07/23 07:02:58;;;;;;;11.70;8.68;;;;;;;26.06;82.12;99705.84;4982319;28;20530;-74
2022/07/23 07:05:25;;;;;;;8.70;7.75;;;;;;;26.21;81.54;99706.19;4981225;28;20027;-74
2022/07/23 07:07:50;;;;;;;14.27;7.57;;;;;;;26.36;80.81;99701.06;4983195;28;20038;-73
2022/07/23 07:10:17;;;;;;;10.85;7.68;;;;;;;26.49;80.26;99700.78;4982403;28;20231;-73
2022/07/23 07:12:44;;;;;;;12.63;8.07;;;;;;;26.56;79.56;99706.06;4978365;28;20038;-74
2022/07/23 07:15:10;;;;;;;12.27;7.60;;;;;;;26.69;78.92;99710.31;4983706;28;20034;-74
2022/07/23 07:17:35;;;;;;;10.35;7.15;;;;;;;26.60;79.50;99711.78;4982532;28;20125;-73
2022/07/23 07:20:01;;;;;;;8.50;7.70;;;;;;;26.63;79.54;99705.88;4981973;28;20046;-74
2022/07/23 07:22:27;;;;;;;8.60;7.50;;;;;;;26.72;79.32;99712.56;4981091;28;20030;-74
2022/07/23 07:24:52;;;;;;;11.63;7.57;;;;;;;26.87;78.87;99723.63;4983159;28;20046;-75
2022/07/23 07:27:18;;;;;;;8.45;7.63;;;;;;;26.89;78.06;99716.13;4982253;28;20027;-76
2022/07/23 07:29:43;;;;;;;7.40;6.57;;;;;;;27.03;76.95;99720.16;4982230;28;20038;-74
2022/07/23 07:32:09;;;;;;;8.95;7.50;;;;;;;27.20;76.28;99718.28;4979028;28;20125;-73
2022/07/23 07:34:35;;;;;;;8.82;8.02;;;;;;;27.07;75.44;99715.06;4980406;28;20086;-74
2022/07/23 07:37:00;;;;;;;9.18;7.25;;;;;;;27.17;75.10;99718.75;4982641;28;20046;-74
2022/07/23 07:39:26;;;;;;;9.05;7.07;;;;;;;27.36;74.69;99718.50;4981334;28;20443;-73
2022/07/23 07:41:51;;;;;;;8.38;7.10;;;;;;;27.45;74.73;99719.75;4983583;28;20038;-74
2022/07/23 07:44:17;;;;;;;7.57;6.85;;;;;;;27.44;75.14;99718.09;4980396;28;20041;-74
2022/07/23 07:46:42;;;;;;;8.77;7.28;;;;;;;27.47;75.03;99718.41;4981309;28;20046;-74
2022/07/23 07:49:08;;;;;;;8.20;6.55;;;;;;;27.54;74.87;99713.66;4975943;28;20023;-74
2022/07/23 07:51:34;;;;;;;8.02;7.22;;;;;;;27.70;75.21;99706.56;4979408;28;20027;-74
2022/07/23 07:54:00;;;;;;;13.35;7.43;;;;;;;27.67;74.51;99707.06;4982626;28;20062;-72
2022/07/23 07:56:26;;;;;;;8.98;6.88;;;;;;;27.82;74.73;99715.41;4979901;28;20078;-73
2022/07/23 07:58:51;;;;;;;7.68;6.50;;;;;;;28.00;74.13;99709.66;4983312;28;20070;-74
2022/07/23 08:01:19;;;;;;;9.73;8.00;;;;;;;27.97;76.34;99702.06;4980194;28;20062;-72
2022/07/23 08:03:44;;;;;;;9.48;7.68;;;;;;;28.03;76.04;99701.03;4981559;28;20037;-73
2022/07/23 08:06:10;;;;;;;12.73;7.65;;;;;;;28.00;75.64;99698.81;4981244;28;20105;-74
2022/07/23 08:08:35;;;;;;;9.82;7.70;;;;;;;28.05;75.46;99698.88;4982685;28;20058;-73
2022/07/23 08:11:01;;;;;;;10.77;7.80;;;;;;;28.11;75.31;99692.44;4982469;28;20041;-74
2022/07/23 08:13:27;;;;;;;8.50;7.57;;;;;;;28.23;75.04;99700.47;4981313;28;20037;-74
2022/07/23 08:15:53;;;;;;;9.82;7.95;;;;;;;28.34;74.79;99695.97;4984881;28;20409;-74
2022/07/23 08:18:19;;;;;;;16.50;7.80;;;;;;;28.48;75.38;99692.59;4980429;28;20078;-75
2022/07/23 08:20:44;;;;;;;9.55;8.15;;;;;;;28.61;77.14;99685.94;4980040;28;20039;-75
2022/07/23 08:23:10;;;;;;;14.23;7.78;;;;;;;28.71;78.79;99685.22;4981216;28;20026;-74
2022/07/23 08:25:38;;;;;;;11.38;8.40;;;;;;;28.74;81.12;99685.56;4982648;28;20035;-74
2022/07/23 08:28:05;;;;;;;14.68;9.20;;;;;;;28.76;82.87;99688.81;4981294;28;20511;-74
2022/07/23 08:30:32;;;;;;;9.82;8.93;;;;;;;28.80;82.96;99684.53;4978673;28;20391;-74
2022/07/23 08:33:06;;;;;;;10.93;8.50;;;;;;;28.67;85.04;99684.91;4983052;28;20038;-73
2022/07/23 08:35:38;;;;;;;11.05;8.25;;;;;;;28.76;84.65;99680.69;4980536;28;20118;-74
2022/07/23 08:38:06;;;;;;;10.50;8.52;;;;;;;28.80;84.14;99689.97;4981824;28;20133;-74
2022/07/23 08:40:34;;;;;;;11.70;8.68;;;;;;;28.85;83.05;99687.28;4980544;28;20061;-75
2022/07/23 08:43:05;;;;;;;12.88;7.88;;;;;;;28.91;82.22;99674.56;4985011;28;20035;-75
2022/07/23 08:45:35;;;;;;;9.25;8.30;;;;;;;28.98;81.58;99675.16;4984836;28;20073;-75
2022/07/23 08:48:00;;;;;;;13.82;8.43;;;;;;;29.13;81.06;99669.00;4984444;28;20037;-74
2022/07/23 08:50:26;;;;;;;9.55;8.60;;;;;;;29.14;80.60;99670.66;4985786;28;20069;-74
2022/07/23 08:52:53;;;;;;;9.32;8.20;;;;;;;29.19;80.00;99676.13;4983250;28;20110;-74
2022/07/23 08:55:21;;;;;;;11.23;8.80;;;;;;;29.24;79.55;99678.88;4984044;28;20038;-74
2022/07/23 08:57:52;;;;;;;10.90;8.27;;;;;;;29.30;79.25;99672.38;4981384;28;20100;-74
2022/07/23 09:00:19;;;;;;;9.43;7.75;;;;;;;29.31;79.17;99674.03;4982153;28;20054;-74
2022/07/23 09:02:51;;;;;;;11.00;9.00;;;;;;;29.38;78.42;99673.84;4983685;28;20045;-73
2022/07/23 09:05:17;;;;;;;9.30;8.40;;;;;;;29.48;78.03;99672.00;4981901;28;20132;-73
2022/07/23 09:08:08;;;;;;;11.32;8.30;;;;;;;29.59;77.92;99665.53;4981649;28;20058;-74
2022/07/23 09:10:44;;;;;;;12.57;8.20;;;;;;;29.62;77.12;99665.00;4983667;28;20042;-74
2022/07/23 09:13:30;;;;;;;10.85;8.07;;;;;;;29.74;77.00;99674.84;4978296;28;20058;-74
2022/07/23 09:16:02;;;;;;;10.02;8.15;;;;;;;29.77;77.02;99672.41;4985444;28;20031;-75
2022/07/23 09:18:32;;;;;;;11.35;8.63;;;;;;;29.85;76.66;99669.19;4983703;28;20054;-74
2022/07/23 09:21:08;;;;;;;;;;;;;;;29.95;75.78;99668.44;4984704;28;20030;-75
2022/07/23 09:23:47;;;;;;;8.90;8.15;;;;;;;30.06;75.86;99675.53;4982737;28;19937;-74
2022/07/23 09:26:23;;;;;;;12.38;7.72;;;;;;;30.17;74.86;99665.50;4981779;28;20035;-74
2022/07/23 09:29:09;;;;;;;12.48;8.43;;;;;;;30.23;74.18;99664.44;4984466;28;20121;-75
2022/07/23 09:31:52;;;;;;;13.25;8.02;;;;;;;30.24;74.67;99661.44;4983292;28;20031;-75
2022/07/23 09:34:33;;;;;;;8.82;7.75;;;;;;;30.27;74.14;99666.38;4980084;28;20161;-74
2022/07/23 09:37:16;;;;;;;11.45;8.25;;;;;;;30.26;73.96;99663.91;4982827;28;20113;-74
2022/07/23 09:39:43;;;;;;;12.43;7.60;;;;;;;30.24;73.42;99666.88;4975867;28;20120;-75
2022/07/23 09:42:13;;;;;;;9.32;8.50;;;;;;;30.26;73.16;99663.91;4984821;28;20031;-74
2022/07/23 09:44:44;;;;;;;13.38;8.82;;;;;;;30.23;73.16;99657.09;4974706;28;20038;-74
2022/07/23 09:47:10;;;;;;;8.60;7.70;;;;;;;30.28;73.31;99651.66;4977269;28;20030;-75
2022/07/23 09:49:35;;;;;;;8.90;7.88;;;;;;;30.35;71.87;99652.22;4982384;28;20102;-75
2022/07/23 09:52:02;;;;;;;17.45;7.95;;;;;;;30.54;71.18;99654.44;4984164;28;20039;-74
2022/07/23 09:54:34;;;;;;;10.38;7.75;;;;;;;30.61;70.28;99652.28;4982533;28;20029;-75
2022/07/23 09:57:09;;;;;;;14.32;8.40;;;;;;;30.69;69.54;99651.75;4981829;28;20134;-74
2022/07/23 09:59:37;;;;;;;8.70;7.88;;;;;;;30.74;69.69;99649.03;4983591;28;20214;-75
2022/07/23 10:02:05;;;;;;;10.40;7.45;;;;;;;30.80;68.47;99643.31;4982672;28;20046;-74
2022/07/23 10:04:38;;;;;;;9.40;7.13;;;;;;;30.74;67.35;99638.94;4975963;28;20038;-74
2022/07/23 10:07:19;;;;;;;8.32;7.55;;;;;;;30.91;67.27;99644.13;4982269;28;20486;-74
2022/07/23 10:10:04;;;;;;;9.23;8.10;;;;;;;31.06;68.53;99640.56;4983636;28;20050;-74
2022/07/23 10:15:18;;;;;;;9.10;7.45;;;;;;;31.20;67.85;99626.13;4981935;28;20105;-74
2022/07/23 10:17:43;;;;;;;9.70;7.60;;;;;;;31.26;67.77;99624.19;4982288;28;20142;-74
2022/07/23 10:20:09;;;;;;;7.18;6.57;;;;;;;31.24;65.89;99629.09;4983109;28;20038;-75
2022/07/23 10:22:42;;;;;;;9.90;7.53;;;;;;;31.35;65.30;99630.69;4979468;28;20030;-75
2022/07/23 10:25:13;;;;;;;13.02;7.90;;;;;;;31.44;65.31;99617.31;4983587;28;20439;-75
2022/07/23 10:28:13;;;;;;;11.00;7.15;;;;;;;31.51;65.89;99606.94;4981251;28;20501;-74
2022/07/23 10:31:03;;;;;;;12.03;7.17;;;;;;;31.59;65.35;99611.84;4982064;28;20030;-73
2022/07/23 10:33:38;;;;;;;8.40;7.55;;;;;;;31.70;64.65;99607.97;4981079;28;20278;-75
2022/07/23 10:36:27;;;;;;;14.25;7.72;;;;;;;31.57;66.95;99592.19;4980905;28;20049;-75
2022/07/23 10:39:16;;;;;;;9.52;7.40;;;;;;;31.65;66.26;99599.81;4978856;28;20086;-75
2022/07/23 10:41:42;;;;;;;12.60;8.02;;;;;;;31.71;66.35;99599.50;4972007;28;20061;-74
2022/07/23 10:44:23;;;;;;;12.35;7.75;;;;;;;31.76;66.07;99590.47;4979967;28;20051;-75
2022/07/23 10:49:33;;;;;;;12.20;6.90;;;;;;;31.97;65.03;99597.47;4981391;28;20038;-74
2022/07/23 10:52:14;;;;;;;8.82;7.35;;;;;;;31.99;65.20;99584.34;4983216;28;20110;-75
2022/07/23 10:54:45;;;;;;;8.90;7.50;;;;;;;32.05;65.11;99583.22;4978868;28;20034;-72
2022/07/23 10:57:12;;;;;;;13.25;7.63;;;;;;;32.10;65.48;99579.66;4981347;28;20486;-73
2022/07/23 11:00:11;;;;;;;8.15;7.47;;;;;;;32.25;65.19;99584.22;4979660;28;20447;-73
2022/07/23 11:02:38;;;;;;;11.52;7.30;;;;;;;32.35;64.87;99579.47;4974447;28;20493;-73
2022/07/23 11:05:06;;;;;;;9.90;7.40;;;;;;;32.43;64.50;99573.41;4981132;28;20042;-73
2022/07/23 11:07:34;;;;;;;10.00;7.38;;;;;;;32.57;63.93;99573.59;4980013;28;20055;-73
2022/07/23 11:10:01;;;;;;;8.65;6.97;;;;;;;32.70;62.26;99567.47;4981197;28;20110;-73
2022/07/23 11:12:27;;;;;;;8.27;6.45;;;;;;;32.78;62.43;99569.59;4977884;28;20078;-73
2022/07/23 11:15:09;;;;;;;8.13;7.20;;;;;;;32.90;60.33;99564.56;4980837;28;20039;-74
2022/07/23 11:17:59;;;;;;;9.80;6.78;;;;;;;33.07;59.87;99558.63;4981804;28;20045;-74
2022/07/23 11:20:26;;;;;;;8.88;7.10;;;;;;;33.22;59.92;99568.63;4978006;28;20034;-74
2022/07/23 11:22:54;;;;;;;8.70;6.30;;;;;;;33.20;58.55;99559.88;4981918;28;20038;-73
2022/07/23 11:25:22;;;;;;;8.32;6.80;;;;;;;33.24;58.95;99555.47;4981899;28;20467;-74
2022/07/23 11:27:50;;;;;;;7.47;6.30;;;;;;;33.30;58.86;99562.50;4979614;28;20342;-74
2022/07/23 11:30:28;;;;;;;7.20;6.53;;;;;;;33.31;59.09;99555.91;4983200;28;20058;-74
2022/07/23 11:33:13;;;;;;;7.28;6.60;;;;;;;33.32;60.08;99557.56;4981038;28;20038;-77
2022/07/23 11:35:43;;;;;;;9.80;6.70;;;;;;;33.28;59.67;99551.84;4973642;28;20440;-76
2022/07/23 11:38:14;;;;;;;7.20;6.60;;;;;;;33.18;60.17;99546.50;4972089;28;20446;-73
2022/07/23 11:40:41;;;;;;;9.15;6.72;;;;;;;33.17;60.33;99544.00;4975997;28;20387;-76